Sunday, June 24, 2018, 8:50 PM EDT

KOKV, Winchester Regional

Location: Winchester, VA, United States Lat: 39.15
Local Time: 8:50 PM EDT ( 0:50 GMT) Lon: -78.15
Time Zone: US/Eastern Elev: 728 ft

Show me the last for .
Show Decoded

2018-06-24 20:35 METAR KOKV 250035Z AUTO 31008KT 10SM CLR 24/17 A2993 RMK AO2 =
2018-06-24 20:15 METAR KOKV 250015Z AUTO 00000KT 10SM SCT065 25/18 A2992 RMK AO2 =
2018-06-24 19:55 METAR KOKV 242355Z AUTO 32011G18KT 10SM BKN065 BKN085 BKN110 26/18 A2991 RMK AO2
                 =
2018-06-24 19:35 METAR KOKV 242335Z AUTO 30006KT 10SM CLR 25/18 A2990 RMK AO2 =
2018-06-24 19:15 METAR KOKV 242315Z AUTO 29008KT 10SM CLR 27/18 A2988 RMK AO2 =
2018-06-24 18:55 METAR KOKV 242255Z AUTO 29007KT 10SM CLR 27/17 A2988 RMK AO2 =
2018-06-24 18:35 METAR KOKV 242235Z AUTO 28007KT 10SM SCT055 27/20 A2988 RMK AO2 =
2018-06-24 18:15 METAR KOKV 242215Z AUTO 21006KT 10SM SCT060 26/21 A2987 RMK AO2 =
2018-06-24 17:55 METAR KOKV 242155Z AUTO 21007KT 10SM BKN060 26/21 A2987 RMK AO2 =
2018-06-24 17:35 METAR KOKV 242135Z AUTO 22008KT 10SM SCT060 26/21 A2987 RMK AO2 =
2018-06-24 17:15 METAR KOKV 242115Z AUTO 21006KT 10SM SCT080 SCT120 26/22 A2987 RMK AO2 LTG DSNT
                 S =
2018-06-24 16:55 METAR KOKV 242055Z AUTO 19005KT 10SM SCT049 BKN080 OVC120 25/22 A2988 RMK AO2
                 P0002 =
2018-06-24 16:35 METAR KOKV 242035Z AUTO 21005KT 10SM RA SCT049 BKN055 OVC085 24/21 A2989 RMK AO2
                 =
2018-06-24 16:15 METAR KOKV 242015Z AUTO 19006KT 10SM SCT070 SCT090 25/20 A2988 RMK AO2 =
2018-06-24 15:55 METAR KOKV 241955Z AUTO 19009KT 10SM SCT075 SCT085 26/21 A2989 RMK AO2 =
2018-06-24 15:35 METAR KOKV 241935Z AUTO 18011KT 10SM SCT085 SCT120 25/21 A2989 RMK AO2 =
2018-06-24 15:15 METAR KOKV 241915Z AUTO 18011G15KT 10SM SCT110 25/20 A2990 RMK AO2 LTG DSNT N
                 AND S =
2018-06-24 14:55 METAR KOKV 241855Z AUTO 17011G14KT 10SM SCT085 BKN110 25/21 A2990 RMK AO2 LTG
                 DSNT N THRU S =
2018-06-24 14:35 METAR KOKV 241835Z AUTO 26004KT 10SM SCT048 BKN090 OVC110 27/19 A2989 RMK AO2
                 LTG DSNT S AND SW =
2018-06-24 14:15 METAR KOKV 241815Z AUTO 24004KT 10SM SCT044 BKN060 OVC080 26/20 A2989 RMK AO2
                 LTG DSNT S AND SW =
2018-06-24 13:55 METAR KOKV 241755Z AUTO 22004KT 10SM SCT048 SCT090 27/19 A2989 RMK AO2 =
2018-06-24 13:35 METAR KOKV 241735Z AUTO 21003KT 10SM SCT120 27/21 A2990 RMK AO2 LTG DSNT SW =
2018-06-24 13:15 METAR KOKV 241715Z AUTO 00000KT 10SM -RA SCT035 SCT070 OVC110 26/20 A2991 RMK
                 AO2 LTG DSNT SW AND W =
2018-06-24 12:55 METAR KOKV 241655Z AUTO 19003KT 10SM OVC110 26/20 A2991 RMK AO2 =
2018-06-24 12:35 METAR KOKV 241635Z AUTO 21003KT 10SM SCT048 BKN120 26/20 A2992 RMK AO2 =
2018-06-24 12:15 METAR KOKV 241615Z AUTO 22003KT 10SM SCT048 BKN120 26/19 A2991 RMK AO2 =
2018-06-24 11:55 METAR KOKV 241555Z AUTO 23004KT 10SM SCT048 BKN120 26/19 A2991 RMK AO2 =
2018-06-24 11:35 METAR KOKV 241535Z AUTO 24006KT 10SM SCT048 SCT120 26/18 A2991 RMK AO2 =
2018-06-24 11:15 METAR KOKV 241515Z AUTO 22005KT 10SM SCT055 26/19 A2991 RMK AO2 =
2018-06-24 10:55 METAR KOKV 241455Z AUTO 23005KT 10SM BKN055 26/20 A2991 RMK AO2 =
2018-06-24 10:35 METAR KOKV 241435Z AUTO 22005KT 10SM SCT065 25/20 A2991 RMK AO2 =
2018-06-24 10:15 METAR KOKV 241415Z AUTO 23003KT 10SM SCT065 24/19 A2991 RMK AO2 =
2018-06-24 09:55 METAR KOKV 241355Z AUTO 25009KT 10SM CLR 24/19 A2991 RMK AO2 =
2018-06-24 09:35 METAR KOKV 241335Z AUTO 21005KT 10SM CLR 23/18 A2991 RMK AO2 =
2018-06-24 09:15 METAR KOKV 241315Z AUTO 21004KT 10SM CLR 23/19 A2991 RMK AO2 =
2018-06-24 08:55 METAR KOKV 241255Z AUTO 20003KT 10SM CLR 22/18 A2991 RMK AO2 =
2018-06-24 08:35 METAR KOKV 241235Z AUTO 23004KT 10SM CLR 22/18 A2992 RMK AO2 =
2018-06-24 08:15 METAR KOKV 241215Z AUTO 23005KT 10SM CLR 21/18 A2991 RMK AO2 =
2018-06-24 07:55 METAR KOKV 241155Z AUTO 24005KT 10SM CLR 21/18 A2991 RMK AO2 =
2018-06-24 07:35 METAR KOKV 241135Z AUTO 21004KT 10SM CLR 20/18 A2990 RMK AO2 =
2018-06-24 07:15 METAR KOKV 241115Z AUTO 24004KT 10SM SCT060 19/17 A2990 RMK AO2 =
2018-06-24 06:55 METAR KOKV 241055Z AUTO 22004KT 10SM SCT060 18/17 A2991 RMK AO2 =
2018-06-24 06:35 METAR KOKV 241035Z AUTO 24004KT 10SM SCT060 18/17 A2989 RMK AO2 =
2018-06-24 06:15 METAR KOKV 241015Z AUTO 23004KT 10SM CLR 19/17 A2988 RMK AO2 =
2018-06-24 05:55 METAR KOKV 240955Z AUTO 23004KT 10SM CLR 19/17 A2988 RMK AO2 =
2018-06-24 05:35 METAR KOKV 240935Z AUTO 23003KT 10SM SCT075 19/17 A2987 RMK AO2 =
2018-06-24 05:15 METAR KOKV 240915Z AUTO 25003KT 10SM SCT075 19/17 A2987 RMK AO2 =
2018-06-24 04:55 METAR KOKV 240855Z AUTO 24004KT 10SM CLR 18/17 A2987 RMK AO2 =
2018-06-24 04:35 METAR KOKV 240835Z AUTO 24004KT 10SM CLR 18/17 A2987 RMK AO2 =
2018-06-24 04:15 METAR KOKV 240815Z AUTO 23004KT 10SM CLR 18/18 A2987 RMK AO2 =
2018-06-24 03:55 METAR KOKV 240755Z AUTO 24004KT 10SM SCT075 18/18 A2987 RMK AO2 =
2018-06-24 03:35 METAR KOKV 240735Z AUTO 22004KT 10SM SCT075 19/18 A2987 RMK AO2 =
2018-06-24 03:15 METAR KOKV 240715Z AUTO 25003KT 10SM BKN075 19/18 A2987 RMK AO2 =
2018-06-24 02:55 METAR KOKV 240655Z AUTO 00000KT 10SM BKN075 18/18 A2986 RMK AO2 =
2018-06-24 02:35 METAR KOKV 240635Z AUTO 00000KT 10SM SCT075 18/18 A2987 RMK AO2 =
2018-06-24 02:15 METAR KOKV 240615Z AUTO 00000KT 10SM CLR 18/18 A2987 RMK AO2 =
2018-06-24 01:55 METAR KOKV 240555Z AUTO 25003KT 4SM BR CLR 18/18 A2988 RMK AO2 =
2018-06-24 01:35 METAR KOKV 240535Z AUTO 00000KT 3/4SM BR VV005 18/18 A2987 RMK AO2 =
2018-06-24 01:15 METAR KOKV 240515Z AUTO 00000KT 1 3/4SM BR VV007 18/18 A2987 RMK AO2 =
2018-06-24 00:55 METAR KOKV 240455Z AUTO 00000KT 2SM BR CLR 18/18 A2986 RMK AO2 =
2018-06-24 00:35 METAR KOKV 240435Z AUTO 00000KT 5SM BR SCT110 18/18 A2986 RMK AO2 =
2018-06-24 00:15 METAR KOKV 240415Z AUTO 00000KT 5SM BR SCT060 SCT075 BKN110 18/18 A2987 RMK AO2
                 =
2018-06-23 23:55 METAR KOKV 240355Z AUTO 20003KT 10SM SCT060 SCT075 BKN110 20/20 A2987 RMK AO2 =
2018-06-23 23:35 METAR KOKV 240335Z AUTO 00000KT 5SM BR CLR 18/18 A2986 RMK AO2 =
2018-06-23 23:15 METAR KOKV 240315Z AUTO 00000KT 10SM CLR 19/18 A2985 RMK AO2 =
2018-06-23 22:55 METAR KOKV 240255Z AUTO 00000KT 10SM SCT060 SCT100 19/19 A2986 RMK AO2 =
2018-06-23 22:35 METAR KOKV 240235Z AUTO 00000KT 7SM BKN065 BKN070 BKN100 19/19 A2986 RMK AO2 =
2018-06-23 22:15 METAR KOKV 240215Z AUTO 00000KT 4SM BR SCT065 SCT090 19/19 A2985 RMK AO2 =
2018-06-23 21:55 METAR KOKV 240155Z AUTO 00000KT 10SM CLR 20/19 A2985 RMK AO2 =
2018-06-23 21:35 METAR KOKV 240135Z AUTO 00000KT 10SM SCT065 SCT095 SCT110 20/20 A2984 RMK AO2 =
2018-06-23 21:15 METAR KOKV 240115Z AUTO 00000KT 10SM BKN065 BKN100 OVC110 21/20 A2984 RMK AO2 =
2018-06-23 20:55 METAR KOKV 240055Z AUTO 00000KT 10SM SCT043 BKN065 BKN100 21/20 A2983 RMK AO2 =

Support USWX by starting your Amazon purchase here.